createdAt,value
2017-02-10T00:00:46.205Z,0
2017-02-10T00:01:56.874Z,0
2017-02-10T00:03:07.639Z,0
2017-02-10T00:04:18.310Z,0
2017-02-10T00:05:28.970Z,0
2017-02-10T00:06:39.640Z,0
2017-02-10T00:07:50.308Z,0
2017-02-10T00:09:01.074Z,0
2017-02-10T00:10:11.736Z,0
2017-02-10T00:11:22.011Z,0
2017-02-10T00:12:32.675Z,0
2017-02-10T00:13:43.345Z,0
2017-02-10T00:14:54.009Z,0
2017-02-10T00:16:04.274Z,0
2017-02-10T00:17:14.944Z,0
2017-02-10T00:18:25.624Z,0
2017-02-10T00:19:36.286Z,0
2017-02-10T00:20:46.948Z,0
2017-02-10T00:21:57.616Z,0
2017-02-10T00:23:08.287Z,0
2017-02-10T00:24:18.553Z,0
2017-02-10T00:25:29.220Z,0
2017-02-10T00:26:39.891Z,0
2017-02-10T00:27:50.559Z,0
2017-02-10T00:29:01.224Z,0
2017-02-10T00:30:11.901Z,0
2017-02-10T00:31:22.578Z,0
2017-02-10T00:32:33.238Z,0
2017-02-10T00:33:43.907Z,0
2017-02-10T00:34:54.572Z,0
2017-02-10T00:36:05.242Z,0
2017-02-10T00:37:15.925Z,0
2017-02-10T00:38:26.607Z,0
2017-02-10T00:39:37.277Z,0
2017-02-10T00:40:47.938Z,0
2017-02-10T00:41:58.599Z,0
2017-02-10T00:43:08.880Z,0
2017-02-10T00:44:19.543Z,0
2017-02-10T00:45:30.234Z,0
2017-02-10T00:46:40.900Z,0
2017-02-10T00:47:51.175Z,0
2017-02-10T00:49:01.844Z,0
2017-02-10T00:50:12.509Z,0
2017-02-10T00:51:22.778Z,0
2017-02-10T00:52:33.442Z,0
2017-02-10T00:53:44.109Z,0
2017-02-10T00:54:54.797Z,0
2017-02-10T00:56:05.470Z,0
2017-02-10T00:57:16.133Z,0
2017-02-10T00:58:26.833Z,0
2017-02-10T00:59:37.504Z,0
2017-02-10T01:00:48.173Z,0
2017-02-10T01:01:58.854Z,0
2017-02-10T01:03:09.521Z,0
2017-02-10T01:04:19.789Z,0
2017-02-10T01:05:30.456Z,0
2017-02-10T01:06:41.123Z,0
2017-02-10T01:07:51.786Z,0
2017-02-10T01:09:02.456Z,0
2017-02-10T01:10:12.727Z,0
2017-02-10T01:11:23.398Z,0
2017-02-10T01:12:34.061Z,0
2017-02-10T01:13:44.727Z,0
2017-02-10T01:14:55.397Z,0
2017-02-10T01:16:06.067Z,0
2017-02-10T01:17:16.349Z,0
2017-02-10T01:18:27.016Z,0
2017-02-10T01:19:37.678Z,0
2017-02-10T01:20:48.340Z,0
2017-02-10T01:21:59.006Z,0
2017-02-10T01:23:09.276Z,0
2017-02-10T01:24:19.950Z,0
2017-02-10T01:25:30.616Z,0
2017-02-10T01:26:41.282Z,0
2017-02-10T01:27:51.948Z,0
2017-02-10T01:29:02.612Z,0
2017-02-10T01:30:13.278Z,0
2017-02-10T01:31:23.941Z,0
2017-02-10T01:32:34.608Z,0
2017-02-10T01:33:45.273Z,0
2017-02-10T01:34:55.938Z,0
2017-02-10T01:36:06.603Z,0
2017-02-10T01:37:17.271Z,0
2017-02-10T01:38:27.933Z,0
2017-02-10T01:39:38.597Z,0
2017-02-10T01:40:49.264Z,0
2017-02-10T01:41:59.531Z,0
2017-02-10T01:43:09.795Z,0
2017-02-10T01:44:20.459Z,0
2017-02-10T01:45:31.127Z,0
2017-02-10T01:46:41.792Z,0
2017-02-10T01:47:52.453Z,0
2017-02-10T01:49:03.113Z,0
2017-02-10T01:50:13.783Z,0
2017-02-10T01:51:24.049Z,0
2017-02-10T01:52:34.717Z,0
2017-02-10T01:53:45.378Z,0
2017-02-10T01:54:56.047Z,0
2017-02-10T01:56:06.711Z,0
2017-02-10T01:57:17.376Z,0
2017-02-10T01:58:28.057Z,0
2017-02-10T01:59:38.721Z,0
2017-02-10T02:00:49.388Z,0
2017-02-10T02:02:00.050Z,0
2017-02-10T02:03:10.718Z,0
2017-02-10T02:04:21.375Z,0
2017-02-10T02:05:32.035Z,0
2017-02-10T02:06:42.705Z,0
2017-02-10T02:07:53.378Z,0
2017-02-10T02:09:04.047Z,0
2017-02-10T02:10:14.711Z,0
2017-02-10T02:11:25.388Z,0
2017-02-10T02:12:36.053Z,0
2017-02-10T02:13:46.716Z,0
2017-02-10T02:14:56.981Z,0
2017-02-10T02:16:07.288Z,0
2017-02-10T02:17:17.559Z,0
2017-02-10T02:18:28.224Z,0
2017-02-10T02:19:38.885Z,0
2017-02-10T02:20:49.547Z,0
2017-02-10T02:22:00.211Z,0
2017-02-10T02:23:10.082Z,0
2017-02-10T02:24:20.354Z,0
2017-02-10T02:25:31.018Z,0
2017-02-10T02:26:41.685Z,0
2017-02-10T02:27:52.353Z,0
2017-02-10T02:29:03.021Z,0
2017-02-10T02:30:13.294Z,0
2017-02-10T02:31:23.168Z,0
2017-02-10T02:32:33.842Z,0
2017-02-10T02:33:44.503Z,0
2017-02-10T02:34:55.170Z,0
2017-02-10T02:36:05.831Z,0
2017-02-10T02:37:15.696Z,0
2017-02-10T02:38:26.365Z,0
2017-02-10T02:39:37.033Z,0
2017-02-10T02:40:47.696Z,0
2017-02-10T02:41:57.172Z,0
2017-02-10T02:43:07.834Z,0
2017-02-10T02:44:18.099Z,0
2017-02-10T02:45:28.764Z,0
2017-02-10T02:46:39.429Z,0
2017-02-10T02:47:50.133Z,0
2017-02-10T02:49:00.832Z,0
2017-02-10T02:50:11.104Z,0
2017-02-10T02:51:21.808Z,0
2017-02-10T02:52:32.472Z,0
2017-02-10T02:53:43.135Z,0
2017-02-10T02:54:53.797Z,0
2017-02-10T02:56:04.472Z,0
2017-02-10T02:57:14.737Z,0
2017-02-10T02:58:25.404Z,0
2017-02-10T02:59:36.064Z,0
2017-02-10T03:00:46.731Z,0
2017-02-10T03:01:57.002Z,0
2017-02-10T03:03:07.680Z,0
2017-02-10T03:04:18.376Z,0
2017-02-10T03:05:29.043Z,0
2017-02-10T03:06:39.704Z,0
2017-02-10T03:07:50.385Z,0
2017-02-10T03:09:01.062Z,0
2017-02-10T03:10:11.728Z,0
2017-02-10T03:11:22.396Z,0
2017-02-10T03:12:33.073Z,0
2017-02-10T03:13:43.740Z,0
2017-02-10T03:14:54.412Z,0
2017-02-10T03:16:05.077Z,0
2017-02-10T03:17:14.950Z,0
2017-02-10T03:18:25.617Z,0
2017-02-10T03:19:36.281Z,0
2017-02-10T03:20:46.941Z,0
2017-02-10T03:21:57.601Z,0
2017-02-10T03:23:08.262Z,0
2017-02-10T03:24:18.541Z,0
2017-02-10T03:25:29.199Z,0
2017-02-10T03:26:39.869Z,0
2017-02-10T03:27:50.537Z,0
2017-02-10T03:29:01.197Z,0
2017-02-10T03:30:11.862Z,0
2017-02-10T03:31:22.136Z,0
2017-02-10T03:32:32.801Z,0
2017-02-10T03:33:43.461Z,0
2017-02-10T03:34:54.130Z,0
2017-02-10T03:36:04.800Z,0
2017-02-10T03:37:15.069Z,0
2017-02-10T03:38:25.744Z,0
2017-02-10T03:39:36.412Z,0
2017-02-10T03:40:47.079Z,0
2017-02-10T03:41:57.745Z,0
2017-02-10T03:43:08.407Z,0
2017-02-10T03:44:19.072Z,0
2017-02-10T03:45:29.770Z,0
2017-02-10T03:46:40.434Z,0
2017-02-10T03:47:51.101Z,0
2017-02-10T03:49:01.761Z,0
2017-02-10T03:50:12.026Z,0
2017-02-10T03:51:22.691Z,0
2017-02-10T03:52:33.359Z,0
2017-02-10T03:53:44.021Z,0
2017-02-10T03:54:54.695Z,0
2017-02-10T03:56:04.966Z,0
2017-02-10T03:57:15.631Z,0
2017-02-10T03:58:26.299Z,0
2017-02-10T03:59:36.965Z,0
2017-02-10T04:00:47.626Z,0
2017-02-10T04:01:58.291Z,0
2017-02-10T04:03:08.559Z,0
2017-02-10T04:04:18.825Z,0
2017-02-10T04:05:29.494Z,0
2017-02-10T04:06:40.156Z,0
2017-02-10T04:07:50.423Z,0
2017-02-10T04:09:01.079Z,0
2017-02-10T04:10:11.352Z,0
2017-02-10T04:11:22.015Z,0
2017-02-10T04:12:32.682Z,0
2017-02-10T04:13:43.346Z,0
2017-02-10T04:14:54.013Z,0
2017-02-10T04:16:04.675Z,0
2017-02-10T04:17:15.336Z,0
2017-02-10T04:18:26.000Z,0
2017-02-10T04:19:36.667Z,0
2017-02-10T04:20:47.330Z,0
2017-02-10T04:21:57.991Z,0
2017-02-10T04:23:08.658Z,0
2017-02-10T04:24:19.320Z,0
2017-02-10T04:25:29.982Z,0
2017-02-10T04:26:40.650Z,0
2017-02-10T04:27:51.317Z,0
2017-02-10T04:29:01.982Z,0
2017-02-10T04:30:12.649Z,0
2017-02-10T04:31:22.921Z,0
2017-02-10T04:32:33.582Z,0
2017-02-10T04:33:44.248Z,0
2017-02-10T04:34:54.920Z,0
2017-02-10T04:36:05.586Z,0
2017-02-10T04:37:16.259Z,0
2017-02-10T04:38:26.940Z,0
2017-02-10T04:39:37.600Z,0
2017-02-10T04:40:48.265Z,0
2017-02-10T04:41:58.932Z,0
2017-02-10T04:43:09.591Z,0
2017-02-10T04:44:19.494Z,0
2017-02-10T04:45:30.161Z,0
2017-02-10T04:46:40.825Z,0
2017-02-10T04:47:51.496Z,0
2017-02-10T04:49:01.768Z,0
2017-02-10T04:50:12.437Z,0
2017-02-10T04:51:22.749Z,0
2017-02-10T04:52:33.421Z,0
2017-02-10T04:53:44.087Z,0
2017-02-10T04:54:54.744Z,0
2017-02-10T04:56:05.412Z,0
2017-02-10T04:57:16.077Z,0
2017-02-10T04:58:26.739Z,0
2017-02-10T04:59:37.399Z,0
2017-02-10T05:00:48.067Z,0
2017-02-10T05:01:58.736Z,0
2017-02-10T05:03:09.400Z,0
2017-02-10T05:04:20.069Z,0
2017-02-10T05:05:30.732Z,0
2017-02-10T05:06:41.397Z,0
2017-02-10T05:07:52.070Z,0
2017-02-10T05:09:02.739Z,0
2017-02-10T05:10:13.009Z,0
2017-02-10T05:11:23.672Z,0
2017-02-10T05:12:34.336Z,0
2017-02-10T05:13:45.009Z,0
2017-02-10T05:14:55.675Z,0
2017-02-10T05:16:06.339Z,0
2017-02-10T05:17:16.610Z,0
2017-02-10T05:18:27.274Z,0
2017-02-10T05:19:37.941Z,0
2017-02-10T05:20:48.601Z,0
2017-02-10T05:21:58.864Z,0
2017-02-10T05:23:09.128Z,0
2017-02-10T05:24:19.785Z,0
2017-02-10T05:25:30.449Z,0
2017-02-10T05:26:41.108Z,0
2017-02-10T05:27:51.777Z,0
2017-02-10T05:29:02.047Z,0
2017-02-10T05:30:12.715Z,0
2017-02-10T05:31:23.398Z,0
2017-02-10T05:32:34.074Z,0
2017-02-10T05:33:44.754Z,0
2017-02-10T05:34:55.417Z,0
2017-02-10T05:36:06.088Z,0
2017-02-10T05:37:16.753Z,0
2017-02-10T05:38:27.415Z,0
2017-02-10T05:39:38.081Z,0
2017-02-10T05:40:48.743Z,0
2017-02-10T05:41:59.010Z,0
2017-02-10T05:43:09.279Z,0
2017-02-10T05:44:19.547Z,0
2017-02-10T05:45:30.219Z,0
2017-02-10T05:46:40.883Z,0
2017-02-10T05:47:51.552Z,0
2017-02-10T05:49:02.214Z,0
2017-02-10T05:50:12.482Z,0
2017-02-10T05:51:22.755Z,0
2017-02-10T05:52:33.421Z,0
2017-02-10T05:53:44.083Z,0
2017-02-10T05:54:54.746Z,0
2017-02-10T05:56:05.411Z,0
2017-02-10T05:57:15.676Z,0
2017-02-10T05:58:26.338Z,0
2017-02-10T05:59:37.007Z,0
2017-02-10T06:00:47.671Z,0
2017-02-10T06:01:58.340Z,0
2017-02-10T06:03:09.013Z,0
2017-02-10T06:04:19.679Z,0
2017-02-10T06:05:30.349Z,0
2017-02-10T06:06:41.018Z,0
2017-02-10T06:07:51.685Z,0
2017-02-10T06:09:02.348Z,0
2017-02-10T06:10:12.616Z,0
2017-02-10T06:11:23.280Z,0
2017-02-10T06:12:33.947Z,0
2017-02-10T06:13:44.614Z,0
2017-02-10T06:14:55.275Z,0
2017-02-10T06:16:05.942Z,0
2017-02-10T06:17:16.611Z,0
2017-02-10T06:18:27.279Z,0
2017-02-10T06:19:37.955Z,0
2017-02-10T06:20:48.625Z,0
2017-02-10T06:21:59.298Z,0
2017-02-10T06:23:09.569Z,0
2017-02-10T06:24:20.233Z,0
2017-02-10T06:25:30.900Z,0
2017-02-10T06:26:41.567Z,0
2017-02-10T06:27:52.236Z,0
2017-02-10T06:29:02.904Z,0
2017-02-10T06:30:13.580Z,0
2017-02-10T06:31:24.248Z,0
2017-02-10T06:32:34.914Z,0
2017-02-10T06:33:45.574Z,0
2017-02-10T06:34:56.241Z,0
2017-02-10T06:36:06.903Z,0
2017-02-10T06:37:17.175Z,0
2017-02-10T06:38:27.840Z,0
2017-02-10T06:39:38.504Z,0
2017-02-10T06:40:49.167Z,0
2017-02-10T06:41:59.835Z,0
2017-02-10T06:43:10.504Z,0
2017-02-10T06:44:20.774Z,0
2017-02-10T06:45:31.431Z,0
2017-02-10T06:46:42.091Z,0
2017-02-10T06:47:52.751Z,0
2017-02-10T06:49:03.430Z,0
2017-02-10T06:50:13.732Z,0
2017-02-10T06:51:24.400Z,0
2017-02-10T06:52:35.068Z,0
2017-02-10T06:53:45.734Z,0
2017-02-10T06:54:56.405Z,0
2017-02-10T06:56:07.076Z,0
2017-02-10T06:57:17.744Z,0
2017-02-10T06:58:28.407Z,0
2017-02-10T06:59:39.076Z,0
2017-02-10T07:00:49.743Z,0
2017-02-10T07:02:00.411Z,0
2017-02-10T07:03:11.081Z,0
2017-02-10T07:04:21.350Z,0
2017-02-10T07:05:32.017Z,0
2017-02-10T07:06:42.691Z,5
2017-02-10T07:07:53.358Z,5
2017-02-10T07:09:04.023Z,5
2017-02-10T07:10:14.705Z,5
2017-02-10T07:11:25.374Z,5
2017-02-10T07:12:36.040Z,5
2017-02-10T07:13:46.708Z,5
2017-02-10T07:14:57.382Z,5
2017-02-10T07:16:08.061Z,10
2017-02-10T07:17:18.731Z,10
2017-02-10T07:18:29.404Z,10
2017-02-10T07:19:40.067Z,10
2017-02-10T07:20:50.731Z,10
2017-02-10T07:22:01.398Z,10
2017-02-10T07:23:12.065Z,15
2017-02-10T07:24:22.334Z,15
2017-02-10T07:25:33.007Z,15
2017-02-10T07:26:43.681Z,15
2017-02-10T07:27:54.356Z,15
2017-02-10T07:29:04.628Z,15
2017-02-10T07:30:14.499Z,15
2017-02-10T07:31:24.769Z,20
2017-02-10T07:32:35.432Z,20
2017-02-10T07:33:46.099Z,20
2017-02-10T07:34:56.763Z,20
2017-02-10T07:36:07.035Z,20
2017-02-10T07:37:17.305Z,20
2017-02-10T07:38:27.975Z,20
2017-02-10T07:39:38.643Z,25
2017-02-10T07:40:49.306Z,25
2017-02-10T07:41:59.573Z,25
2017-02-10T07:43:10.234Z,25
2017-02-10T07:44:20.902Z,25
2017-02-10T07:45:31.572Z,25
2017-02-10T07:46:42.234Z,25
2017-02-10T07:47:52.903Z,25
2017-02-10T07:49:03.568Z,25
2017-02-10T07:50:14.242Z,30
2017-02-10T07:51:24.909Z,30
2017-02-10T07:52:35.576Z,30
2017-02-10T07:53:46.256Z,35
2017-02-10T07:54:56.924Z,35
2017-02-10T07:56:07.594Z,35
2017-02-10T07:57:17.882Z,35
2017-02-10T07:58:28.554Z,40
2017-02-10T07:59:39.222Z,40
2017-02-10T08:00:49.887Z,40
2017-02-10T08:02:00.555Z,40
2017-02-10T08:03:11.218Z,45
2017-02-10T08:04:21.493Z,45
2017-02-10T08:05:32.159Z,45
2017-02-10T08:06:42.819Z,50
2017-02-10T08:07:53.520Z,50
2017-02-10T08:09:04.192Z,50
2017-02-10T08:10:14.861Z,55
2017-02-10T08:11:25.528Z,55
2017-02-10T08:12:36.201Z,55
2017-02-10T08:13:46.875Z,55
2017-02-10T08:14:57.140Z,55
2017-02-10T08:16:07.807Z,55
2017-02-10T08:17:18.077Z,55
2017-02-10T08:18:28.737Z,60
2017-02-10T08:19:39.404Z,60
2017-02-10T08:20:50.069Z,65
2017-02-10T08:22:00.731Z,65
2017-02-10T08:23:11.462Z,65
2017-02-10T08:24:21.732Z,65
2017-02-10T08:25:32.402Z,65
2017-02-10T08:26:43.069Z,70
2017-02-10T08:27:53.739Z,70
2017-02-10T08:29:04.403Z,70
2017-02-10T08:30:14.286Z,70
2017-02-10T08:31:24.983Z,70
2017-02-10T08:32:35.691Z,75
2017-02-10T08:33:46.374Z,75
2017-02-10T08:34:57.051Z,75
2017-02-10T08:36:07.324Z,75
2017-02-10T08:37:17.618Z,75
2017-02-10T08:38:28.328Z,75
2017-02-10T08:39:38.996Z,75
2017-02-10T08:40:49.661Z,75
2017-02-10T08:42:00.329Z,75
2017-02-10T08:43:11.000Z,70
2017-02-10T08:44:21.664Z,70
2017-02-10T08:45:32.342Z,70
2017-02-10T08:46:43.011Z,65
2017-02-10T08:47:53.676Z,65
2017-02-10T08:49:04.345Z,65
2017-02-10T08:50:14.621Z,70
2017-02-10T08:51:25.288Z,70
2017-02-10T08:52:35.961Z,70
2017-02-10T08:53:46.620Z,65
2017-02-10T08:54:57.284Z,65
2017-02-10T08:56:07.553Z,65
2017-02-10T08:57:17.828Z,60
2017-02-10T08:58:28.498Z,60
2017-02-10T08:59:38.767Z,60
2017-02-10T09:00:49.436Z,60
2017-02-10T09:01:59.709Z,60
2017-02-10T09:03:10.378Z,65
2017-02-10T09:04:21.040Z,65
2017-02-10T09:05:31.706Z,65
2017-02-10T09:06:42.379Z,65
2017-02-10T09:07:53.039Z,65
2017-02-10T09:09:03.707Z,65
2017-02-10T09:10:14.372Z,70
2017-02-10T09:11:25.040Z,70
2017-02-10T09:12:35.314Z,75
2017-02-10T09:13:45.985Z,70
2017-02-10T09:14:56.653Z,70
2017-02-10T09:16:07.321Z,70
2017-02-10T09:17:17.606Z,70
2017-02-10T09:18:28.304Z,75
2017-02-10T09:19:38.973Z,75
2017-02-10T09:20:49.642Z,75
2017-02-10T09:21:59.519Z,75
2017-02-10T09:23:09.788Z,75
2017-02-10T09:24:20.057Z,80
2017-02-10T09:25:30.721Z,80
2017-02-10T09:26:41.392Z,80
2017-02-10T09:27:52.056Z,85
2017-02-10T09:29:02.320Z,90
2017-02-10T09:30:12.582Z,90
2017-02-10T09:31:22.877Z,90
2017-02-10T09:32:33.548Z,90
2017-02-10T09:33:44.224Z,95
2017-02-10T09:34:54.929Z,95
2017-02-10T09:36:05.624Z,100
2017-02-10T09:37:16.291Z,95
2017-02-10T09:38:26.959Z,100
2017-02-10T09:39:37.630Z,100
2017-02-10T09:40:48.309Z,105
2017-02-10T09:41:58.984Z,105
2017-02-10T09:43:09.658Z,100
2017-02-10T09:44:19.930Z,100
2017-02-10T09:45:30.615Z,100
2017-02-10T09:46:41.284Z,100
2017-02-10T09:47:51.942Z,100
2017-02-10T09:49:02.610Z,105
2017-02-10T09:50:12.890Z,100
2017-02-10T09:51:23.157Z,100
2017-02-10T09:52:33.824Z,100
2017-02-10T09:53:44.488Z,100
2017-02-10T09:54:55.160Z,100
2017-02-10T09:56:05.823Z,100
2017-02-10T09:57:16.493Z,95
2017-02-10T09:58:26.362Z,95
2017-02-10T09:59:36.627Z,95
2017-02-10T10:00:47.295Z,95
2017-02-10T10:01:57.965Z,90
2017-02-10T10:03:08.638Z,90
2017-02-10T10:04:19.320Z,95
2017-02-10T10:05:29.988Z,95
2017-02-10T10:06:40.661Z,95
2017-02-10T10:07:51.325Z,95
2017-02-10T10:09:01.991Z,90
2017-02-10T10:10:12.661Z,90
2017-02-10T10:11:22.532Z,95
2017-02-10T10:12:33.204Z,95
2017-02-10T10:13:43.868Z,95
2017-02-10T10:14:54.537Z,100
2017-02-10T10:16:05.201Z,100
2017-02-10T10:17:15.865Z,100
2017-02-10T10:18:26.531Z,100
2017-02-10T10:19:37.195Z,105
2017-02-10T10:20:47.859Z,110
2017-02-10T10:21:58.527Z,115
2017-02-10T10:23:09.199Z,115
2017-02-10T10:24:19.467Z,120
2017-02-10T10:25:30.138Z,120
2017-02-10T10:26:40.804Z,120
2017-02-10T10:27:51.469Z,120
2017-02-10T10:29:02.138Z,125
2017-02-10T10:30:12.404Z,125
2017-02-10T10:31:22.671Z,130
2017-02-10T10:32:33.335Z,135
2017-02-10T10:33:44.003Z,140
2017-02-10T10:34:54.667Z,145
2017-02-10T10:36:05.328Z,150
2017-02-10T10:37:15.993Z,155
2017-02-10T10:38:26.701Z,155
2017-02-10T10:39:36.971Z,160
2017-02-10T10:40:47.634Z,160
2017-02-10T10:41:58.304Z,165
2017-02-10T10:43:08.974Z,165
2017-02-10T10:44:18.854Z,165
2017-02-10T10:45:29.516Z,180
2017-02-10T10:46:40.187Z,185
2017-02-10T10:47:50.859Z,185
2017-02-10T10:49:01.532Z,180
2017-02-10T10:50:11.809Z,180
2017-02-10T10:51:22.090Z,185
2017-02-10T10:52:32.767Z,185
2017-02-10T10:53:43.443Z,180
2017-02-10T10:54:54.109Z,180
2017-02-10T10:56:04.775Z,180
2017-02-10T10:57:15.443Z,185
2017-02-10T10:58:26.111Z,180
2017-02-10T10:59:36.781Z,185
2017-02-10T11:00:47.473Z,185
2017-02-10T11:01:58.146Z,185
2017-02-10T11:03:08.825Z,185
2017-02-10T11:04:19.498Z,180
2017-02-10T11:05:30.173Z,170
2017-02-10T11:06:40.849Z,165
2017-02-10T11:07:51.520Z,165
2017-02-10T11:09:02.201Z,160
2017-02-10T11:10:12.884Z,155
2017-02-10T11:11:23.159Z,145
2017-02-10T11:12:33.823Z,145
2017-02-10T11:13:44.098Z,145
2017-02-10T11:14:54.768Z,155
2017-02-10T11:16:05.439Z,150
2017-02-10T11:17:16.145Z,155
2017-02-10T11:18:26.823Z,165
2017-02-10T11:19:37.492Z,165
2017-02-10T11:20:48.162Z,165
2017-02-10T11:21:58.831Z,170
2017-02-10T11:23:09.498Z,170
2017-02-10T11:24:19.770Z,165
2017-02-10T11:25:30.444Z,165
2017-02-10T11:26:41.113Z,165
2017-02-10T11:27:51.783Z,170
2017-02-10T11:29:02.454Z,175
2017-02-10T11:30:12.724Z,175
2017-02-10T11:31:23.000Z,175
2017-02-10T11:32:33.666Z,175
2017-02-10T11:33:44.335Z,175
2017-02-10T11:34:55.014Z,175
2017-02-10T11:36:05.687Z,175
2017-02-10T11:37:16.353Z,170
2017-02-10T11:38:26.631Z,165
2017-02-10T11:39:37.302Z,165
2017-02-10T11:40:47.979Z,165
2017-02-10T11:41:58.646Z,170
2017-02-10T11:43:09.314Z,170
2017-02-10T11:44:19.587Z,170
2017-02-10T11:45:30.248Z,175
2017-02-10T11:46:40.921Z,180
2017-02-10T11:47:51.583Z,180
2017-02-10T11:49:02.253Z,185
2017-02-10T11:50:12.920Z,195
2017-02-10T11:51:23.192Z,195
2017-02-10T11:52:33.862Z,195
2017-02-10T11:53:44.138Z,205
2017-02-10T11:54:54.808Z,200
2017-02-10T11:56:05.477Z,200
2017-02-10T11:57:15.779Z,205
2017-02-10T11:58:26.446Z,210
2017-02-10T11:59:37.119Z,205
2017-02-10T12:00:47.789Z,210
2017-02-10T12:01:58.458Z,200
2017-02-10T12:03:09.137Z,205
2017-02-10T12:04:19.014Z,205
2017-02-10T12:05:29.679Z,205
2017-02-10T12:06:40.349Z,210
2017-02-10T12:07:51.014Z,210
2017-02-10T12:09:01.681Z,210
2017-02-10T12:10:12.356Z,210
2017-02-10T12:11:22.633Z,205
2017-02-10T12:12:33.301Z,205
2017-02-10T12:13:43.582Z,200
2017-02-10T12:14:54.254Z,195
2017-02-10T12:16:04.967Z,190
2017-02-10T12:17:15.268Z,185
2017-02-10T12:18:25.940Z,180
2017-02-10T12:19:36.612Z,180
2017-02-10T12:20:46.895Z,180
2017-02-10T12:21:57.597Z,180
2017-02-10T12:23:08.276Z,185
2017-02-10T12:24:18.947Z,185
2017-02-10T12:25:29.623Z,180
2017-02-10T12:26:40.293Z,185
2017-02-10T12:27:50.958Z,180
2017-02-10T12:29:01.624Z,180
2017-02-10T12:30:11.497Z,185
2017-02-10T12:31:21.766Z,185
2017-02-10T12:32:32.432Z,185
2017-02-10T12:33:43.094Z,185
2017-02-10T12:34:53.764Z,180
2017-02-10T12:36:04.043Z,180
2017-02-10T12:37:14.714Z,175
2017-02-10T12:38:25.399Z,180
2017-02-10T12:39:36.077Z,180
2017-02-10T12:40:46.746Z,185
2017-02-10T12:41:57.418Z,180
2017-02-10T12:43:08.101Z,180
2017-02-10T12:44:18.772Z,180
2017-02-10T12:45:29.443Z,180
2017-02-10T12:46:40.124Z,180
2017-02-10T12:47:50.798Z,180
2017-02-10T12:49:01.474Z,180
2017-02-10T12:50:12.139Z,180
2017-02-10T12:51:22.811Z,185
2017-02-10T12:52:33.479Z,185
2017-02-10T12:53:43.748Z,185
2017-02-10T12:54:54.423Z,185
2017-02-10T12:56:05.095Z,190
2017-02-10T12:57:15.768Z,195
2017-02-10T12:58:26.431Z,195
2017-02-10T12:59:37.097Z,205
2017-02-10T13:00:47.772Z,215
2017-02-10T13:01:58.440Z,210
2017-02-10T13:03:09.146Z,210
2017-02-10T13:04:19.416Z,210
2017-02-10T13:07:02.251Z,210
2017-02-10T13:08:12.525Z,210
2017-02-10T13:09:23.196Z,200
2017-02-10T13:10:33.475Z,190
2017-02-10T13:11:44.139Z,180
2017-02-10T13:12:54.817Z,175
2017-02-10T13:14:05.488Z,170
2017-02-10T13:15:15.767Z,175
2017-02-10T13:16:26.431Z,175
2017-02-10T13:17:37.099Z,175
2017-02-10T13:18:47.769Z,175
2017-02-10T13:19:58.435Z,175
2017-02-10T13:21:09.103Z,180
2017-02-10T13:22:19.767Z,180
2017-02-10T13:23:30.442Z,180
2017-02-10T13:24:41.111Z,175
2017-02-10T13:25:51.780Z,165
2017-02-10T13:27:02.449Z,165
2017-02-10T13:28:12.734Z,170
2017-02-10T13:29:23.012Z,175
2017-02-10T13:30:33.679Z,175
2017-02-10T13:31:44.346Z,165
2017-02-10T13:32:55.052Z,165
2017-02-10T13:34:05.725Z,165
2017-02-10T13:35:16.421Z,170
2017-02-10T13:36:27.091Z,175
2017-02-10T13:37:37.804Z,170
2017-02-10T13:38:48.478Z,165
2017-02-10T13:39:59.149Z,155
2017-02-10T13:41:09.853Z,155
2017-02-10T13:42:20.536Z,150
2017-02-10T13:43:31.201Z,150
2017-02-10T13:44:41.916Z,150
2017-02-10T13:45:52.586Z,155
2017-02-10T13:47:03.259Z,150
2017-02-10T13:48:13.930Z,150
2017-02-10T13:49:24.277Z,150
2017-02-10T13:50:34.954Z,150
2017-02-10T13:51:45.628Z,145
2017-02-10T13:52:56.336Z,145
2017-02-10T13:54:07.008Z,145
2017-02-10T13:55:17.676Z,145
2017-02-10T13:56:28.346Z,155
2017-02-10T13:57:39.017Z,160
2017-02-10T13:58:49.722Z,160
2017-02-10T14:00:00.386Z,160
2017-02-10T14:01:10.659Z,160
2017-02-10T14:02:21.325Z,160
2017-02-10T14:03:31.599Z,160
2017-02-10T14:04:42.269Z,155
2017-02-10T14:05:52.945Z,155
2017-02-10T14:07:03.617Z,150
2017-02-10T14:08:14.287Z,145
2017-02-10T14:09:24.964Z,145
2017-02-10T14:10:35.734Z,140
2017-02-10T14:11:46.015Z,135
2017-02-10T14:12:56.692Z,130
2017-02-10T14:14:07.352Z,130
2017-02-10T14:15:17.235Z,130
2017-02-10T14:16:27.902Z,130
2017-02-10T14:17:38.570Z,130
2017-02-10T14:18:49.242Z,130
2017-02-10T14:19:59.913Z,125
2017-02-10T14:21:10.605Z,120
2017-02-10T14:22:21.272Z,120
2017-02-10T14:23:31.949Z,120
2017-02-10T14:24:42.620Z,115
2017-02-10T14:25:53.296Z,105
2017-02-10T14:27:03.969Z,105
2017-02-10T14:28:14.633Z,100
2017-02-10T14:29:25.298Z,95
2017-02-10T14:30:35.967Z,90
2017-02-10T14:31:46.635Z,85
2017-02-10T14:32:57.307Z,85
2017-02-10T14:34:07.579Z,80
2017-02-10T14:35:18.252Z,80
2017-02-10T14:36:28.923Z,75
2017-02-10T14:37:39.601Z,70
2017-02-10T14:38:49.908Z,70
2017-02-10T14:40:00.575Z,65
2017-02-10T14:41:11.242Z,65
2017-02-10T14:42:21.515Z,60
2017-02-10T14:43:32.182Z,60
2017-02-10T14:44:42.851Z,60
2017-02-10T14:45:53.526Z,60
2017-02-10T14:47:04.193Z,60
2017-02-10T14:48:14.468Z,60
2017-02-10T14:49:25.131Z,60
2017-02-10T14:50:35.794Z,60
2017-02-10T14:51:46.071Z,55
2017-02-10T14:52:56.738Z,55
2017-02-10T14:54:07.413Z,50
2017-02-10T14:55:18.109Z,50
2017-02-10T14:56:28.768Z,50
2017-02-10T14:57:39.432Z,50
2017-02-10T14:58:50.099Z,50
2017-02-10T15:00:00.768Z,45
2017-02-10T15:01:11.469Z,45
2017-02-10T15:02:22.195Z,40
2017-02-10T15:03:32.077Z,40
2017-02-10T15:04:42.734Z,35
2017-02-10T15:05:53.400Z,35
2017-02-10T15:07:04.076Z,35
2017-02-10T15:08:14.750Z,35
2017-02-10T15:09:25.418Z,30
2017-02-10T15:10:36.094Z,30
2017-02-10T15:11:46.761Z,30
2017-02-10T15:12:57.431Z,30
2017-02-10T15:14:08.100Z,30
2017-02-10T15:15:18.770Z,25
2017-02-10T15:16:29.444Z,25
2017-02-10T15:17:39.714Z,25
2017-02-10T15:18:50.386Z,25
2017-02-10T15:20:01.053Z,25
2017-02-10T15:21:11.722Z,20
2017-02-10T15:22:21.985Z,20
2017-02-10T15:23:32.660Z,20
2017-02-10T15:24:43.330Z,20
2017-02-10T15:25:53.993Z,20
2017-02-10T15:27:04.672Z,20
2017-02-10T15:28:15.338Z,20
2017-02-10T15:29:26.006Z,15
2017-02-10T15:30:36.674Z,15
2017-02-10T15:31:47.346Z,15
2017-02-10T15:32:58.011Z,15
2017-02-10T15:34:08.688Z,15
2017-02-10T15:35:19.360Z,15
2017-02-10T15:36:30.023Z,15
2017-02-10T15:37:40.689Z,15
2017-02-10T15:38:51.360Z,10
2017-02-10T15:40:02.032Z,10
2017-02-10T15:41:12.302Z,10
2017-02-10T15:42:22.970Z,10
2017-02-10T15:43:33.632Z,10
2017-02-10T15:44:44.295Z,5
2017-02-10T15:45:54.961Z,5
2017-02-10T15:47:05.628Z,5
2017-02-10T15:48:16.298Z,5
2017-02-10T15:49:26.965Z,5
2017-02-10T15:50:37.634Z,5
2017-02-10T15:51:47.904Z,5
2017-02-10T15:52:58.604Z,5
2017-02-10T15:54:09.274Z,5
2017-02-10T15:55:19.944Z,0
2017-02-10T15:56:30.607Z,0
2017-02-10T15:57:41.275Z,0
2017-02-10T15:58:51.939Z,0
2017-02-10T16:00:02.612Z,0
2017-02-10T16:01:13.281Z,0
2017-02-10T16:02:23.949Z,0
2017-02-10T16:03:34.621Z,0
2017-02-10T16:04:45.288Z,0
2017-02-10T16:05:55.557Z,0
2017-02-10T16:07:06.225Z,0
2017-02-10T16:08:16.891Z,0
2017-02-10T16:09:27.557Z,0
2017-02-10T16:10:37.826Z,0
2017-02-10T16:11:48.493Z,0
2017-02-10T16:12:59.185Z,0
2017-02-10T16:14:09.861Z,0
2017-02-10T16:15:20.524Z,0
2017-02-10T16:16:31.192Z,0
2017-02-10T16:17:41.862Z,0
2017-02-10T16:18:52.550Z,0
2017-02-10T16:20:03.254Z,0
2017-02-10T16:21:13.927Z,0
2017-02-10T16:22:24.600Z,0
2017-02-10T16:23:35.271Z,0
2017-02-10T16:24:45.938Z,0
2017-02-10T16:25:56.607Z,0
2017-02-10T16:27:07.371Z,0
2017-02-10T16:28:17.648Z,0
2017-02-10T16:29:28.315Z,0
2017-02-10T16:30:38.977Z,0
2017-02-10T16:31:49.638Z,0
2017-02-10T16:33:00.306Z,0
2017-02-10T16:34:10.975Z,0
2017-02-10T16:35:21.661Z,0
2017-02-10T16:36:31.940Z,0
2017-02-10T16:37:42.608Z,0
2017-02-10T16:38:53.300Z,0
2017-02-10T16:40:03.992Z,0
2017-02-10T16:41:14.663Z,0
2017-02-10T16:42:25.326Z,0
2017-02-10T16:43:35.991Z,0
2017-02-10T16:44:46.657Z,0
2017-02-10T16:45:57.325Z,0
2017-02-10T16:47:07.988Z,0
2017-02-10T16:48:18.255Z,0
2017-02-10T16:49:28.925Z,0
2017-02-10T16:50:39.590Z,0
2017-02-10T16:51:50.256Z,0
2017-02-10T16:53:00.921Z,0
2017-02-10T16:54:11.187Z,0
2017-02-10T16:55:21.457Z,0
2017-02-10T16:56:32.125Z,0